createdAt,value
2022-11-05T00:00:22.276Z,99715.62
2022-11-05T00:03:27.539Z,99708.66
2022-11-05T00:06:15.707Z,99696.53
2022-11-05T00:09:02.986Z,99692.20
2022-11-05T00:11:49.992Z,99703.50
2022-11-05T00:14:36.908Z,99704.42
2022-11-05T00:17:05.701Z,99706.14
2022-11-05T00:19:34.351Z,99710.50
2022-11-05T00:22:22.002Z,99704.47
2022-11-05T00:25:08.797Z,99711.47
2022-11-05T00:27:37.672Z,99716.67
2022-11-05T00:30:09.279Z,99704.59
2022-11-05T00:32:39.184Z,99715.88
2022-11-05T00:35:10.945Z,99705.50
2022-11-05T00:37:39.923Z,99701.19
2022-11-05T00:40:12.356Z,99696.02
2022-11-05T00:43:01.315Z,99686.50
2022-11-05T00:45:32.261Z,99692.58
2022-11-05T00:48:19.478Z,99681.34
2022-11-05T00:50:49.044Z,99683.98
2022-11-05T00:53:17.664Z,99680.53
2022-11-05T00:55:47.577Z,99682.30
2022-11-05T00:58:21.107Z,99683.17
2022-11-05T01:00:54.290Z,99679.73
2022-11-05T01:03:25.514Z,99677.14
2022-11-05T01:05:56.353Z,99682.34
2022-11-05T01:08:27.228Z,99683.22
2022-11-05T01:10:58.756Z,99684.98
2022-11-05T01:13:29.519Z,99676.34
2022-11-05T01:16:04.516Z,99684.14
2022-11-05T01:18:33.144Z,99690.22
2022-11-05T01:21:13.600Z,99696.30
2022-11-05T01:23:42.333Z,99704.95
2022-11-05T01:26:10.868Z,99703.22
2022-11-05T01:28:39.421Z,99710.15
2022-11-05T01:31:08.060Z,99707.59
2022-11-05T01:33:36.836Z,99704.11
2022-11-05T01:36:06.962Z,99699.81
2022-11-05T01:38:35.707Z,99695.50
2022-11-05T01:41:04.456Z,99713.70
2022-11-05T01:43:49.029Z,99718.91
2022-11-05T01:46:21.563Z,99718.03
2022-11-05T01:49:00.043Z,99728.43
2022-11-05T01:51:31.438Z,99718.91
2022-11-05T01:54:03.096Z,99716.30
2022-11-05T01:56:37.362Z,99713.70
2022-11-05T01:59:10.320Z,99722.34
2022-11-05T02:01:39.553Z,99726.70
2022-11-05T02:04:11.375Z,99727.55
2022-11-05T02:06:45.483Z,99726.70
2022-11-05T02:09:20.516Z,99731.91
2022-11-05T02:11:51.259Z,99739.67
2022-11-05T02:14:20.353Z,99722.38
2022-11-05T02:16:58.189Z,99713.70
2022-11-05T02:19:56.058Z,99713.70
2022-11-05T02:23:03.111Z,99715.47
2022-11-05T02:25:57.819Z,99719.82
2022-11-05T02:28:49.329Z,99721.58
2022-11-05T02:31:28.755Z,99710.34
2022-11-05T02:34:00.930Z,99723.33
2022-11-05T02:36:39.723Z,99726.78
2022-11-05T02:39:19.084Z,99732.86
2022-11-05T02:42:05.039Z,99732.89
2022-11-05T02:44:45.378Z,99744.17
2022-11-05T02:47:28.170Z,99745.05
2022-11-05T02:50:13.228Z,99747.69
2022-11-05T02:52:50.164Z,99749.41
2022-11-05T02:55:27.246Z,99754.61
2022-11-05T02:57:55.745Z,99753.77
2022-11-05T03:00:43.812Z,99749.48
2022-11-05T03:03:17.592Z,99751.17
2022-11-05T03:05:58.139Z,99746.00
2022-11-05T03:08:37.632Z,99744.31
2022-11-05T03:11:14.066Z,99749.52
2022-11-05T03:13:53.652Z,99751.23
2022-11-05T03:16:31.487Z,99750.42
2022-11-05T03:19:07.699Z,99766.90
2022-11-05T03:21:45.200Z,99771.22
2022-11-05T03:24:18.745Z,99771.25
2022-11-05T03:26:55.425Z,99780.77
2022-11-05T03:29:30.133Z,99781.66
2022-11-05T03:32:01.279Z,99779.05
2022-11-05T03:34:34.583Z,99776.45
2022-11-05T03:37:04.471Z,99773.02
2022-11-05T03:39:38.089Z,99773.89
2022-11-05T03:42:09.931Z,99777.36
2022-11-05T03:44:42.981Z,99774.80
2022-11-05T03:47:18.150Z,99778.23
2022-11-05T03:49:55.519Z,99780.87
2022-11-05T03:52:28.329Z,99784.34
2022-11-05T03:54:57.224Z,99796.47
2022-11-05T03:57:29.511Z,99794.75
2022-11-05T03:59:58.102Z,99797.34
2022-11-05T04:02:27.902Z,99794.75
2022-11-05T04:04:56.717Z,99808.59
2022-11-05T04:07:43.751Z,99803.39
2022-11-05T04:10:31.255Z,99801.70
2022-11-05T04:13:18.571Z,99802.58
2022-11-05T04:16:05.438Z,99801.73
2022-11-05T04:18:36.083Z,99801.73
2022-11-05T04:21:25.087Z,99800.03
2022-11-05T04:24:09.447Z,99816.51
2022-11-05T04:26:41.043Z,99819.98
2022-11-05T04:29:28.511Z,99833.82
2022-11-05T04:31:57.880Z,99826.90
2022-11-05T04:34:26.330Z,99834.70
2022-11-05T04:36:54.792Z,99840.74
2022-11-05T04:39:23.661Z,99841.59
2022-11-05T04:41:52.375Z,99833.80
2022-11-05T04:44:21.237Z,99846.79
2022-11-05T04:46:56.333Z,99859.78
2022-11-05T04:49:25.015Z,99860.66
2022-11-05T04:51:54.917Z,99858.09
2022-11-05T04:54:28.234Z,99858.09
2022-11-05T04:56:56.910Z,99872.84
2022-11-05T04:59:26.266Z,99873.73
2022-11-05T05:01:54.987Z,99873.73
2022-11-05T05:04:24.185Z,99871.16
2022-11-05T05:06:52.699Z,99868.59
2022-11-05T05:09:21.766Z,99871.22
2022-11-05T05:11:53.217Z,99864.30
2022-11-05T05:14:22.030Z,99866.08
2022-11-05T05:16:53.626Z,99876.47
2022-11-05T05:19:23.908Z,99877.36
2022-11-05T05:21:52.564Z,99865.28
2022-11-05T05:24:24.556Z,99874.84
2022-11-05T05:26:53.530Z,99872.27
2022-11-05T05:29:22.030Z,99876.61
2022-11-05T05:31:51.792Z,99883.55
2022-11-05T05:34:20.488Z,99885.30
2022-11-05T05:36:50.338Z,99884.42
2022-11-05T05:39:19.037Z,99885.30
2022-11-05T05:41:49.042Z,99888.77
2022-11-05T05:44:18.135Z,99903.53
2022-11-05T05:46:48.535Z,99913.05
2022-11-05T05:49:18.086Z,99901.81
2022-11-05T05:51:52.262Z,99907.85
2022-11-05T05:54:22.931Z,99908.73
2022-11-05T05:56:54.048Z,99904.41
2022-11-05T05:59:23.254Z,99898.34
2022-11-05T06:01:54.354Z,99908.73
2022-11-05T06:04:24.474Z,99916.52
2022-11-05T06:06:53.097Z,99922.61
2022-11-05T06:09:22.160Z,99925.23
2022-11-05T06:11:51.625Z,99927.83
2022-11-05T06:14:20.594Z,99935.61
2022-11-05T06:16:51.104Z,99938.20
2022-11-05T06:19:19.969Z,99935.64
2022-11-05T06:21:49.794Z,99930.44
2022-11-05T06:24:18.491Z,99939.10
2022-11-05T06:26:49.785Z,99933.94
2022-11-05T06:29:19.980Z,99944.30
2022-11-05T06:31:53.281Z,99945.14
2022-11-05T06:34:22.270Z,99938.23
2022-11-05T06:36:51.427Z,99939.95
2022-11-05T06:39:21.756Z,99941.67
2022-11-05T06:42:21.672Z,99945.16
2022-11-05T06:44:41.457Z,99949.48
2022-11-05T06:47:11.804Z,99950.33
2022-11-05T06:49:42.041Z,99948.58
2022-11-05T06:52:12.107Z,99959.81
2022-11-05T06:54:45.523Z,99955.48
2022-11-05T06:57:14.238Z,99951.14
2022-11-05T06:59:45.097Z,99951.14
2022-11-05T07:02:14.075Z,99957.20
2022-11-05T07:04:42.759Z,99962.37
2022-11-05T07:07:11.728Z,99961.48
2022-11-05T07:09:42.666Z,99959.77
2022-11-05T07:12:12.175Z,99961.48
2022-11-05T07:14:41.052Z,99962.31
2022-11-05T07:17:10.254Z,99973.56
2022-11-05T07:19:39.196Z,99967.52
2022-11-05T07:22:08.166Z,99969.24
2022-11-05T07:24:36.926Z,99957.95
2022-11-05T07:27:07.852Z,99966.60
2022-11-05T07:29:36.704Z,99963.95
2022-11-05T07:32:06.915Z,99974.33
2022-11-05T07:34:36.497Z,99993.39
2022-11-05T07:37:08.352Z,99990.77
2022-11-05T07:39:36.903Z,99983.80
2022-11-05T07:42:06.042Z,99995.05
2022-11-05T07:44:34.975Z,99996.76
2022-11-05T07:47:03.646Z,99999.31
2022-11-05T07:49:32.222Z,100002.73
2022-11-05T07:52:00.899Z,100011.36
2022-11-05T07:54:30.318Z,100012.22
2022-11-05T07:57:00.872Z,100023.45
2022-11-05T07:59:30.140Z,100030.41
2022-11-05T08:01:59.290Z,100022.61
2022-11-05T08:04:28.415Z,100025.21
2022-11-05T08:06:57.164Z,100016.54
2022-11-05T08:09:26.058Z,100026.92
2022-11-05T08:12:01.612Z,100025.14
2022-11-05T08:14:32.029Z,100030.34
2022-11-05T08:17:00.776Z,100027.72
2022-11-05T08:19:29.580Z,100029.45
2022-11-05T08:21:58.436Z,100028.55
2022-11-05T08:24:27.262Z,100031.97
2022-11-05T08:26:55.897Z,100029.37
2022-11-05T08:29:24.733Z,100029.38
2022-11-05T08:31:53.364Z,100033.70
2022-11-05T08:34:22.034Z,100036.30
2022-11-05T08:36:51.358Z,100031.10
2022-11-05T08:39:20.073Z,100029.35
2022-11-05T08:41:50.098Z,100024.98
2022-11-05T08:44:18.617Z,100024.92
2022-11-05T08:46:47.527Z,100030.08
2022-11-05T08:49:16.539Z,100016.99
2022-11-05T08:51:45.428Z,100027.34
2022-11-05T08:54:13.971Z,100039.45
2022-11-05T08:56:42.580Z,100039.42
2022-11-05T08:59:11.509Z,100056.80
2022-11-05T09:01:40.267Z,100058.52
2022-11-05T09:04:09.138Z,100066.32
2022-11-05T09:06:37.704Z,100067.19
2022-11-05T09:09:06.190Z,100060.23
2022-11-05T09:12:05.189Z,100068.89
2022-11-05T09:14:26.467Z,100068.89
2022-11-05T09:16:55.052Z,100066.27
2022-11-05T09:19:24.058Z,100074.92
2022-11-05T09:21:52.595Z,100080.09
2022-11-05T09:24:21.286Z,100072.30
2022-11-05T09:26:50.372Z,100071.39
2022-11-05T09:29:19.366Z,100086.09
2022-11-05T09:31:49.723Z,100085.23
2022-11-05T09:34:18.385Z,100086.05
2022-11-05T09:36:47.081Z,100074.73
2022-11-05T09:39:16.722Z,100088.59
2022-11-05T09:41:46.696Z,100096.38
2022-11-05T09:44:20.595Z,100100.70
2022-11-05T09:46:52.998Z,100104.19
2022-11-05T09:49:26.894Z,100105.91
2022-11-05T09:51:58.163Z,100108.48
2022-11-05T09:54:31.022Z,100118.87
2022-11-05T09:57:02.268Z,100115.39
2022-11-05T09:59:36.209Z,100110.16
2022-11-05T10:02:17.207Z,100119.69
2022-11-05T10:04:52.383Z,100117.06
2022-11-05T10:07:25.471Z,100137.89
2022-11-05T10:09:57.911Z,100139.61
2022-11-05T10:12:37.182Z,100138.77
2022-11-05T10:15:15.396Z,100133.53
2022-11-05T10:17:50.897Z,100145.64
2022-11-05T10:20:31.440Z,100146.52
2022-11-05T10:23:02.722Z,100143.04
2022-11-05T10:25:35.855Z,100147.38
2022-11-05T10:28:06.024Z,100153.42
2022-11-05T10:30:35.270Z,100162.08
2022-11-05T10:33:06.410Z,100168.20
2022-11-05T10:35:39.651Z,100165.56
2022-11-05T10:38:13.527Z,100165.54
2022-11-05T10:40:46.986Z,100158.61
2022-11-05T10:43:21.691Z,100156.85
2022-11-05T10:45:59.392Z,100148.11
2022-11-05T10:48:44.174Z,100153.25
2022-11-05T10:51:13.839Z,100154.13
2022-11-05T10:53:50.958Z,100156.67
2022-11-05T10:56:34.480Z,100155.80
2022-11-05T10:59:10.957Z,100165.34
2022-11-05T11:01:40.910Z,100161.89
2022-11-05T11:04:20.326Z,100162.77
2022-11-05T11:06:51.564Z,100168.88
2022-11-05T11:09:26.494Z,100172.36
2022-11-05T11:12:04.059Z,100168.88
2022-11-05T11:14:34.593Z,100171.52
2022-11-05T11:17:27.827Z,100174.97
2022-11-05T11:20:27.499Z,100177.58
2022-11-05T11:23:05.343Z,100179.27
2022-11-05T11:25:42.422Z,100180.13
2022-11-05T11:28:22.260Z,100187.91
2022-11-05T11:30:56.877Z,100183.57
2022-11-05T11:33:28.314Z,100185.30
2022-11-05T11:35:57.690Z,100183.58
2022-11-05T11:38:29.641Z,100183.55
2022-11-05T11:41:05.848Z,100183.55
2022-11-05T11:43:39.725Z,100187.03
2022-11-05T11:46:15.298Z,100182.67
2022-11-05T11:48:51.189Z,100193.94
2022-11-05T11:51:34.619Z,100191.33
2022-11-05T11:54:04.913Z,100190.48
2022-11-05T11:56:44.268Z,100208.72
2022-11-05T11:59:40.575Z,100206.14
2022-11-05T12:02:31.555Z,100206.16
2022-11-05T12:05:13.249Z,100212.28
2022-11-05T12:07:52.221Z,100221.79
2022-11-05T12:10:40.911Z,100226.13
2022-11-05T12:13:41.983Z,100219.19
2022-11-05T12:16:22.222Z,100221.77
2022-11-05T12:19:02.044Z,100227.86
2022-11-05T12:21:52.461Z,100221.77
2022-11-05T12:24:44.246Z,100222.61
2022-11-05T12:27:26.155Z,100221.71
2022-11-05T12:30:02.421Z,100220.84
2022-11-05T12:32:58.410Z,100218.20
2022-11-05T12:35:48.981Z,100219.05
2022-11-05T12:38:33.549Z,100212.08
2022-11-05T12:41:16.052Z,100213.84
2022-11-05T12:43:56.781Z,100219.90
2022-11-05T12:46:29.260Z,100213.81
2022-11-05T12:49:22.915Z,100206.84
2022-11-05T12:52:10.474Z,100221.57
2022-11-05T12:54:50.227Z,100218.97
2022-11-05T12:57:21.111Z,100224.17
2022-11-05T12:59:56.372Z,100218.97
2022-11-05T13:02:30.308Z,100219.84
2022-11-05T13:05:04.176Z,100211.18
2022-11-05T13:07:37.465Z,100213.78
2022-11-05T13:10:15.530Z,100222.48
2022-11-05T13:12:46.405Z,100228.56
2022-11-05T13:15:26.180Z,100234.63
2022-11-05T13:17:59.347Z,100232.88
2022-11-05T13:20:30.999Z,100226.80
2022-11-05T13:23:10.795Z,100235.50
2022-11-05T13:25:57.805Z,100245.05
2022-11-05T13:28:35.355Z,100238.11
2022-11-05T13:31:09.861Z,100251.13
2022-11-05T13:33:42.613Z,100251.98
2022-11-05T13:36:34.351Z,100265.06
2022-11-05T13:39:14.078Z,100264.20
2022-11-05T13:41:53.845Z,100266.81
2022-11-05T13:44:51.714Z,100266.81
2022-11-05T13:47:52.186Z,100268.57
2022-11-05T13:50:50.205Z,100273.81
2022-11-05T13:53:46.848Z,100281.65
2022-11-05T13:56:32.019Z,100281.65
2022-11-05T13:59:14.283Z,100286.00
2022-11-05T14:01:49.628Z,100292.97
2022-11-05T14:04:28.952Z,100298.17
2022-11-05T14:07:09.384Z,100303.44
2022-11-05T14:09:39.891Z,100308.66
2022-11-05T14:12:20.446Z,100315.64
2022-11-05T14:14:58.460Z,100313.03
2022-11-05T14:17:32.924Z,100312.18
2022-11-05T14:20:38.784Z,100318.27
2022-11-05T14:23:38.152Z,100319.14
2022-11-05T14:26:21.853Z,100325.25
2022-11-05T14:29:30.026Z,100327.84
2022-11-05T14:32:09.204Z,100333.08
2022-11-05T14:34:53.939Z,100333.95
2022-11-05T14:37:27.681Z,100328.77
2022-11-05T14:40:01.516Z,100345.24
2022-11-05T14:42:31.150Z,100336.58
2022-11-05T14:45:06.923Z,100340.91
2022-11-05T14:47:42.189Z,100350.45
2022-11-05T14:50:18.086Z,100343.52
2022-11-05T14:52:57.772Z,100340.95
2022-11-05T14:55:34.188Z,100349.63
2022-11-05T14:58:27.141Z,100343.59
2022-11-05T15:00:57.373Z,100352.27
2022-11-05T15:03:33.356Z,100355.76
2022-11-05T15:06:23.208Z,100360.97
2022-11-05T15:09:19.341Z,100359.21
2022-11-05T15:12:01.791Z,100356.61
2022-11-05T15:14:35.288Z,100364.42
2022-11-05T15:17:15.498Z,100363.56
2022-11-05T15:19:49.110Z,100369.63
2022-11-05T15:22:29.274Z,100370.50
2022-11-05T15:24:58.452Z,100369.64
2022-11-05T15:28:02.195Z,100371.41
2022-11-05T15:30:31.039Z,100376.62
2022-11-05T15:33:15.035Z,100376.61
2022-11-05T15:35:44.033Z,100378.36
2022-11-05T15:38:28.147Z,100383.57
2022-11-05T15:41:02.394Z,100386.17
2022-11-05T15:43:30.048Z,100385.31
2022-11-05T15:46:08.185Z,100381.85
2022-11-05T15:48:36.968Z,100378.40
2022-11-05T15:51:06.353Z,100378.39
2022-11-05T15:54:24.008Z,100386.22
2022-11-05T15:56:52.553Z,100394.00
2022-11-05T15:59:23.702Z,100397.48
2022-11-05T16:01:59.383Z,100395.75
2022-11-05T16:04:31.979Z,100401.83
2022-11-05T16:07:09.510Z,100400.09
2022-11-05T16:09:41.247Z,100404.41
2022-11-05T16:12:28.108Z,100400.10
2022-11-05T16:15:04.593Z,100413.98
2022-11-05T16:17:46.951Z,100412.23
2022-11-05T16:20:24.241Z,100419.17
2022-11-05T16:22:55.117Z,100416.58
2022-11-05T16:25:30.027Z,100424.37
2022-11-05T16:27:59.986Z,100418.30
2022-11-05T16:30:29.339Z,100428.71
2022-11-05T16:33:06.508Z,100425.23
2022-11-05T16:35:50.040Z,100426.11
2022-11-05T16:38:23.762Z,100446.06
2022-11-05T16:40:52.766Z,100443.45
2022-11-05T16:43:26.088Z,100445.21
2022-11-05T16:45:57.534Z,100453.87
2022-11-05T16:48:26.998Z,100460.80
2022-11-05T16:50:56.172Z,100459.09
2022-11-05T16:53:25.068Z,100460.80
2022-11-05T16:55:54.106Z,100453.87
2022-11-05T16:58:25.278Z,100464.30
2022-11-05T17:01:00.744Z,100471.22
2022-11-05T17:03:30.480Z,100470.39
2022-11-05T17:06:03.921Z,100469.51
2022-11-05T17:08:32.904Z,100484.28
2022-11-05T17:11:01.918Z,100490.33
2022-11-05T17:13:31.640Z,100492.09
2022-11-05T17:16:01.839Z,100493.81
2022-11-05T17:18:30.663Z,100499.02
2022-11-05T17:20:59.235Z,100496.42
2022-11-05T17:23:29.328Z,100501.61
2022-11-05T17:26:02.138Z,100504.19
2022-11-05T17:28:32.544Z,100507.67
2022-11-05T17:31:02.933Z,100499.84
2022-11-05T17:33:32.265Z,100515.47
2022-11-05T17:36:05.034Z,100517.20
2022-11-05T17:38:34.067Z,100518.06
2022-11-05T17:41:09.580Z,100517.18
2022-11-05T17:43:38.482Z,100517.20
2022-11-05T17:46:09.318Z,100519.78
2022-11-05T17:48:38.669Z,100521.52
2022-11-05T17:51:10.579Z,100527.59
2022-11-05T17:53:39.590Z,100531.03
2022-11-05T17:56:10.284Z,100531.90
2022-11-05T17:58:40.011Z,100529.30
2022-11-05T18:01:23.520Z,100544.93
2022-11-05T18:03:53.953Z,100539.71
2022-11-05T18:06:22.737Z,100539.71
2022-11-05T18:08:51.795Z,100545.78
2022-11-05T18:11:20.606Z,100544.03
2022-11-05T18:13:49.681Z,100536.22
2022-11-05T18:16:18.419Z,100537.97
2022-11-05T18:18:50.813Z,100538.84
2022-11-05T18:21:19.395Z,100537.11
2022-11-05T18:23:52.615Z,100538.86
2022-11-05T18:26:21.201Z,100543.20
2022-11-05T18:28:52.143Z,100551.02
2022-11-05T18:31:21.662Z,100559.70
2022-11-05T18:33:56.720Z,100553.64
2022-11-05T18:36:27.118Z,100554.53
2022-11-05T18:38:57.891Z,100559.75
2022-11-05T18:41:26.438Z,100560.62
2022-11-05T18:43:59.282Z,100556.30
2022-11-05T18:46:55.789Z,100558.07
2022-11-05T18:49:17.682Z,100557.19
2022-11-05T18:51:49.743Z,100562.42
2022-11-05T18:54:18.300Z,100561.56
2022-11-05T18:56:47.225Z,100563.27
2022-11-05T19:02:08.792Z,100574.55
2022-11-05T19:04:38.613Z,100571.92
2022-11-05T19:07:08.835Z,100578.03
2022-11-05T19:09:38.861Z,100582.34
2022-11-05T19:12:07.916Z,100579.76
2022-11-05T19:14:36.914Z,100578.02
2022-11-05T19:17:05.638Z,100574.57
2022-11-05T19:19:34.690Z,100579.75
2022-11-05T19:22:03.455Z,100581.50
2022-11-05T19:24:32.048Z,100585.83
2022-11-05T19:27:00.558Z,100591.91
2022-11-05T19:29:29.353Z,100590.17
2022-11-05T19:32:00.014Z,100597.96
2022-11-05T19:34:28.824Z,100601.43
2022-11-05T19:37:00.217Z,100602.31
2022-11-05T19:39:29.524Z,100600.56
2022-11-05T19:42:03.694Z,100608.37
2022-11-05T19:44:33.348Z,100607.52
2022-11-05T19:47:02.337Z,100614.45
2022-11-05T19:49:38.024Z,100616.17
2022-11-05T19:52:06.851Z,100617.90
2022-11-05T19:54:35.689Z,100615.31
2022-11-05T19:57:05.825Z,100615.30
2022-11-05T19:59:37.521Z,100617.05
2022-11-05T20:02:09.366Z,100629.20
2022-11-05T20:04:40.892Z,100630.92
2022-11-05T20:07:09.966Z,100632.63
2022-11-05T20:09:41.650Z,100640.45
2022-11-05T20:12:10.229Z,100640.45
2022-11-05T20:14:38.984Z,100636.98
2022-11-05T20:17:07.694Z,100640.44
2022-11-05T20:19:36.495Z,100649.11
2022-11-05T20:22:05.120Z,100644.80
2022-11-05T20:24:37.977Z,100643.06
2022-11-05T20:27:06.569Z,100651.73
2022-11-05T20:29:35.972Z,100649.12
2022-11-05T20:32:06.070Z,100659.52
2022-11-05T20:34:35.397Z,100650.87
2022-11-05T20:37:04.027Z,100663.00
2022-11-05T20:39:33.042Z,100663.86
2022-11-05T20:42:01.644Z,100666.48
2022-11-05T20:44:30.219Z,100662.16
2022-11-05T20:46:59.825Z,100653.48
2022-11-05T20:49:28.626Z,100661.30
2022-11-05T20:51:57.246Z,100668.20
2022-11-05T20:54:26.141Z,100669.09
2022-11-05T20:56:54.589Z,100673.43
2022-11-05T20:59:23.655Z,100678.63
2022-11-05T21:01:52.755Z,100663.02
2022-11-05T21:04:21.577Z,100676.02
2022-11-05T21:06:52.824Z,100675.16
2022-11-05T21:09:21.418Z,100685.55
2022-11-05T21:12:09.355Z,100675.14
2022-11-05T21:14:38.453Z,100674.27
2022-11-05T21:17:09.427Z,100676.01
2022-11-05T21:19:38.477Z,100677.77
2022-11-05T21:22:07.468Z,100677.74
2022-11-05T21:24:38.169Z,100677.74
2022-11-05T21:27:06.857Z,100681.23
2022-11-05T21:29:36.631Z,100677.77
2022-11-05T21:32:05.634Z,100689.02
2022-11-05T21:34:37.026Z,100688.17
2022-11-05T21:37:05.819Z,100689.04
2022-11-05T21:39:34.499Z,100686.44
2022-11-05T21:42:03.230Z,100680.35
2022-11-05T21:44:31.827Z,100683.81
2022-11-05T21:47:00.616Z,100689.88
2022-11-05T21:49:29.244Z,100684.70
2022-11-05T21:52:18.952Z,100683.84
2022-11-05T21:55:05.274Z,100682.95
2022-11-05T21:57:53.368Z,100678.64
2022-11-05T22:00:23.425Z,100685.56
2022-11-05T22:02:54.837Z,100689.02
2022-11-05T22:05:24.140Z,100691.63
2022-11-05T22:07:53.097Z,100683.84
2022-11-05T22:10:22.083Z,100695.96
2022-11-05T22:12:51.648Z,100686.42
2022-11-05T22:15:20.614Z,100683.83
2022-11-05T22:17:51.723Z,100683.84
2022-11-05T22:20:20.453Z,100689.04
2022-11-05T22:22:49.854Z,100699.42
2022-11-05T22:25:18.604Z,100702.92
2022-11-05T22:27:47.254Z,100708.11
2022-11-05T22:30:16.728Z,100710.69
2022-11-05T22:32:45.728Z,100711.55
2022-11-05T22:35:14.292Z,100715.88
2022-11-05T22:37:42.857Z,100715.03
2022-11-05T22:40:12.453Z,100715.02
2022-11-05T22:42:41.171Z,100716.75
2022-11-05T22:45:10.904Z,100714.16
2022-11-05T22:47:41.997Z,100714.13
2022-11-05T22:50:10.975Z,100716.75
2022-11-05T22:52:39.538Z,100715.88
2022-11-05T22:55:09.547Z,100711.55
2022-11-05T22:57:38.231Z,100701.13
2022-11-05T23:00:16.720Z,100708.06
2022-11-05T23:02:46.996Z,100709.81
2022-11-05T23:05:17.675Z,100721.06
2022-11-05T23:08:04.540Z,100714.12
2022-11-05T23:10:51.866Z,100721.93
2022-11-05T23:13:20.636Z,100714.14
2022-11-05T23:16:10.213Z,100718.47
2022-11-05T23:18:57.110Z,100716.73
2022-11-05T23:21:43.988Z,100720.20
2022-11-05T23:24:12.970Z,100716.70
2022-11-05T23:26:50.691Z,100716.72
2022-11-05T23:29:20.078Z,100721.91
2022-11-05T23:32:16.386Z,100725.37
2022-11-05T23:34:44.971Z,100725.36
2022-11-05T23:37:32.047Z,100727.08
2022-11-05T23:40:00.762Z,100725.34
2022-11-05T23:42:49.023Z,100724.48
2022-11-05T23:45:51.078Z,100718.41
2022-11-05T23:48:25.782Z,100721.84
2022-11-05T23:51:00.608Z,100725.30
2022-11-05T23:53:30.943Z,100732.25
2022-11-05T23:56:04.983Z,100728.77
2022-11-05T23:58:34.260Z,100730.48
